Time;durP1;ratioP1;P1;durP2;ratioP2;P2;SDS_P1;SDS_P2;PMS_P1;PMS_P2;Temp;Humidity;BMP_temperature;BMP_pressure;BME280_temperature;BME280_humidity;BME280_pressure;Samples;Min_cycle;Max_cycle;Signal;HPM_P1;HPM_P2
2022/03/30 07:39:18;;;;;;;45.13;19.70;;;6.70;99.90;;;;;;5091381;27;20545;-73
2022/03/30 07:41:44;;;;;;;40.08;20.42;;;6.90;99.90;;;;;;5090910;28;20201;-71
2022/03/30 07:44:10;;;;;;;44.47;20.17;;;6.60;99.90;;;;;;5091144;28;20170;-71
2022/03/30 07:46:36;;;;;;;43.72;21.35;;;6.60;99.90;;;;;;5089746;28;20168;-71
2022/03/30 07:49:01;;;;;;;45.72;21.20;;;6.60;99.90;;;;;;5091247;28;20523;-72
2022/03/30 07:51:27;;;;;;;42.55;21.38;;;6.60;99.90;;;;;;5090936;28;20172;-72
2022/03/30 07:53:52;;;;;;;47.25;21.77;;;6.60;99.90;;;;;;5090997;28;20613;-72
2022/03/30 07:56:18;;;;;;;42.80;20.17;;;7.10;99.90;;;;;;5091024;28;20171;-72
2022/03/30 07:58:46;;;;;;;47.08;22.08;;;6.60;99.90;;;;;;5090839;28;20281;-72
2022/03/30 08:01:19;;;;;;;53.95;21.65;;;6.60;99.90;;;;;;5089722;28;20258;-72
2022/03/30 08:03:45;;;;;;;39.63;18.88;;;6.50;99.90;;;;;;5090888;28;20255;-72
2022/03/30 08:06:12;;;;;;;47.03;20.13;;;6.60;99.90;;;;;;5090760;28;20244;-71
2022/03/30 08:08:38;;;;;;;45.45;19.55;;;6.60;99.90;;;;;;5090550;28;20175;-72
2022/03/30 08:11:04;;;;;;;51.97;18.02;;;6.60;99.90;;;;;;5090487;28;20637;-72
2022/03/30 08:13:30;;;;;;;40.47;18.90;;;6.70;99.90;;;;;;5090663;28;20183;-72
2022/03/30 08:15:55;;;;;;;46.25;18.77;;;6.70;99.90;;;;;;5090469;28;20242;-71
2022/03/30 08:18:21;;;;;;;47.58;20.42;;;6.80;99.90;;;;;;5090406;28;20196;-71
2022/03/30 08:23:31;;;;;;;37.13;17.25;;;6.80;99.90;;;;;;5070250;28;20180;-72
2022/03/30 08:39:24;;;;;;;35.45;15.85;;;7.10;99.90;;;;;;5111489;27;20457;-73
2022/03/30 08:41:50;;;;;;;37.75;17.02;;;7.10;99.90;;;;;;5111528;28;20175;-70
2022/03/30 08:44:17;;;;;;;50.78;17.20;;;7.20;99.90;;;;;;5111472;28;20216;-71
2022/03/30 08:46:45;;;;;;;31.23;15.93;;;7.20;99.90;;;;;;5111300;28;20247;-71
2022/03/30 08:49:11;;;;;;;31.27;16.98;;;7.30;99.90;;;;;;5111325;28;20662;-71
2022/03/30 08:51:39;;;;;;;43.35;17.30;;;7.30;99.90;;;;;;5111313;28;20531;-71
2022/03/30 08:54:08;;;;;;;35.00;16.27;;;7.30;99.90;;;;;;5111556;28;20579;-71
2022/03/30 08:56:36;;;;;;;26.50;14.85;;;7.30;99.90;;;;;;5111084;28;20208;-71
2022/03/30 08:59:04;;;;;;;35.83;16.10;;;7.40;99.90;;;;;;5111144;28;20195;-71
2022/03/30 09:01:34;;;;;;;36.67;16.23;;;7.50;99.90;;;;;;5111208;28;20167;-71
2022/03/30 09:04:02;;;;;;;30.92;16.08;;;7.50;99.90;;;;;;5111054;28;20625;-71
2022/03/30 09:06:46;;;;;;;36.42;17.10;;;7.60;99.90;;;;;;5110871;28;20178;-71
2022/03/30 09:09:14;;;;;;;29.08;15.93;;;7.60;99.90;;;;;;5111035;28;20231;-71
2022/03/30 09:11:52;;;;;;;32.28;15.20;;;7.70;99.90;;;;;;5110928;28;20166;-71
2022/03/30 09:14:20;;;;;;;30.70;14.73;;;7.70;99.90;;;;;;5110939;28;20254;-71
2022/03/30 09:16:51;;;;;;;30.35;13.95;;;7.70;99.90;;;;;;5110912;28;20238;-71
2022/03/30 09:19:19;;;;;;;28.65;14.88;;;7.70;99.90;;;;;;5110514;28;20248;-71
2022/03/30 09:21:48;;;;;;;33.95;16.05;;;7.70;99.90;;;;;;5110756;28;20182;-71
2022/03/30 09:24:16;;;;;;;31.52;15.02;;;7.80;99.90;;;;;;5109561;28;20202;-71
2022/03/30 09:26:42;;;;;;;25.92;14.23;;;7.80;99.90;;;;;;5110690;28;20246;-70
2022/03/30 09:29:09;;;;;;;33.25;16.25;;;7.80;99.90;;;;;;5110685;28;20258;-71
2022/03/30 09:31:36;;;;;;;36.65;16.17;;;7.90;99.90;;;;;;5110539;28;20199;-71
2022/03/30 09:34:04;;;;;;;36.75;14.90;;;7.90;99.90;;;;;;5110456;28;20163;-71
2022/03/30 09:36:33;;;;;;;35.25;16.42;;;7.90;99.90;;;;;;5109260;28;20179;-71
2022/03/30 09:38:58;;;;;;;29.45;13.73;;;7.80;99.90;;;;;;5110200;28;20276;-71
2022/03/30 09:41:24;;;;;;;27.13;15.32;;;8.90;99.90;;;;;;5110571;28;20209;-71
2022/03/30 09:44:02;;;;;;;29.20;15.65;;;8.00;99.90;;;;;;5109287;28;20509;-71
2022/03/30 09:46:28;;;;;;;31.85;15.13;;;8.00;99.90;;;;;;5110344;28;20171;-71
2022/03/30 09:48:54;;;;;;;30.13;14.38;;;8.00;99.90;;;;;;5107216;28;20245;-72
2022/03/30 09:51:22;;;;;;;34.75;17.10;;;8.10;99.90;;;;;;5096626;28;20161;-71
2022/03/30 09:53:48;;;;;;;36.92;15.70;;;8.10;99.90;;;;;;5096599;28;20168;-71
2022/03/30 09:56:17;;;;;;;30.63;15.27;;;8.10;99.90;;;;;;5096415;28;20176;-71
2022/03/30 09:58:43;;;;;;;24.77;14.23;;;8.20;99.90;;;;;;5096655;28;20269;-71
2022/03/30 10:01:19;;;;;;;33.45;15.23;;;8.20;99.90;;;;;;5096403;28;20221;-71
2022/03/30 10:03:52;;;;;;;29.20;14.15;;;8.20;99.90;;;;;;5096539;28;20183;-71
2022/03/30 10:06:26;;;;;;;25.63;13.57;;;8.30;99.90;;;;;;5096275;28;20160;-71
2022/03/30 10:08:52;;;;;;;30.77;15.05;;;8.30;99.90;;;;;;5096405;28;20625;-71
2022/03/30 10:11:20;;;;;;;25.55;13.15;;;8.30;99.90;;;;;;5095003;28;20701;-71
2022/03/30 10:13:49;;;;;;;31.65;14.00;;;8.30;99.90;;;;;;5096139;28;20175;-71
2022/03/30 10:16:17;;;;;;;25.92;13.70;;;8.40;99.90;;;;;;5096163;28;20514;-71
2022/03/30 10:18:43;;;;;;;26.33;14.00;;;8.40;99.90;;;;;;5094799;28;20199;-71
2022/03/30 10:21:24;;;;;;;35.22;15.07;;;8.50;99.90;;;;;;5095954;28;20168;-71
2022/03/30 10:24:09;;;;;;;23.63;12.98;;;8.50;99.90;;;;;;5094872;28;20167;-71
2022/03/30 10:26:55;;;;;;;25.73;13.32;;;8.60;99.90;;;;;;5096116;28;20247;-71
2022/03/30 10:29:24;;;;;;;24.20;12.85;;;8.70;99.90;;;;;;5096033;28;20231;-71
2022/03/30 10:32:18;;;;;;;22.67;13.02;;;8.80;99.90;;;;;;5095976;28;20226;-71
2022/03/30 10:35:09;;;;;;;22.48;13.50;;;8.90;99.90;;;;;;5095799;28;20217;-71
2022/03/30 10:37:36;;;;;;;22.85;12.85;;;9.00;99.90;;;;;;5094629;28;20223;-71
2022/03/30 10:40:05;;;;;;;25.50;11.50;;;9.10;99.90;;;;;;5095801;28;20251;-71
2022/03/30 10:42:46;;;;;;;21.08;12.15;;;9.20;99.90;;;;;;5094383;28;20171;-71
2022/03/30 10:45:17;;;;;;;20.95;11.90;;;9.20;99.90;;;;;;5094591;28;20167;-71
2022/03/30 10:48:16;;;;;;;24.30;12.05;;;9.30;99.90;;;;;;5094413;28;20176;-71
2022/03/30 10:50:49;;;;;;;19.63;12.65;;;9.30;99.90;;;;;;5094474;28;20203;-71
2022/03/30 10:53:33;;;;;;;24.75;12.35;;;9.30;99.90;;;;;;5095360;28;20243;-71
2022/03/30 10:56:14;;;;;;;22.55;11.70;;;9.20;99.90;;;;;;5094133;28;20179;-71
2022/03/30 10:59:00;;;;;;;25.88;12.23;;;9.30;99.90;;;;;;5095368;28;20297;-71
2022/03/30 11:01:31;;;;;;;20.88;12.45;;;9.30;99.90;;;;;;5094326;28;20518;-71
2022/03/30 11:04:17;;;;;;;21.73;12.73;;;9.30;99.90;;;;;;5094117;28;20199;-71
2022/03/30 11:06:45;;;;;;;27.40;12.80;;;9.40;99.90;;;;;;5095090;28;20255;-71
2022/03/30 11:09:30;;;;;;;28.35;13.20;;;9.50;99.90;;;;;;5094978;28;20160;-71
2022/03/30 11:11:57;;;;;;;20.13;12.63;;;9.50;99.90;;;;;;5095011;28;20176;-71
2022/03/30 11:14:24;;;;;;;21.08;12.98;;;9.60;99.90;;;;;;5095095;28;20187;-71
2022/03/30 11:16:52;;;;;;;21.33;12.38;;;9.60;99.90;;;;;;5094788;28;20188;-71
2022/03/30 11:19:18;;;;;;;19.75;12.25;;;9.50;99.90;;;;;;5093500;28;20238;-71
2022/03/30 11:22:09;;;;;;;21.40;11.30;;;9.60;99.90;;;;;;5094660;28;20199;-71
2022/03/30 11:24:36;;;;;;;21.67;12.07;;;9.70;99.90;;;;;;5094681;28;20531;-71
2022/03/30 11:27:01;;;;;;;29.92;13.02;;;9.70;99.90;;;;;;5094637;28;20503;-71
2022/03/30 11:29:58;;;;;;;22.95;12.93;;;9.70;99.90;;;;;;5094570;28;20164;-71
2022/03/30 11:32:28;;;;;;;20.95;11.57;;;9.80;99.90;;;;;;5089960;28;20227;-71
2022/03/30 11:34:58;;;;;;;20.30;12.18;;;9.90;99.90;;;;;;5093487;28;20654;-71
2022/03/30 11:37:27;;;;;;;20.13;11.15;;;9.90;99.90;;;;;;5094468;28;20314;-71
2022/03/30 11:40:04;;;;;;;23.50;12.52;;;10.00;99.90;;;;;;5094423;28;20213;-71
2022/03/30 11:42:30;;;;;;;22.25;12.48;;;10.00;99.90;;;;;;5094521;28;20171;-71
2022/03/30 11:45:14;;;;;;;26.40;13.02;;;10.00;99.90;;;;;;5094594;28;20159;-71
2022/03/30 11:47:45;;;;;;;27.50;13.05;;;10.00;99.90;;;;;;5094360;28;20178;-71
2022/03/30 11:50:12;;;;;;;20.35;11.93;;;10.10;99.90;;;;;;5094494;28;20228;-71
2022/03/30 11:52:39;;;;;;;22.85;11.82;;;10.20;99.90;;;;;;5094396;28;20175;-71
2022/03/30 11:55:05;;;;;;;18.35;10.85;;;10.30;99.90;;;;;;5093037;28;20175;-71
2022/03/30 11:57:41;;;;;;;20.00;11.15;;;10.40;99.90;;;;;;5094151;28;20192;-71
2022/03/30 12:00:09;;;;;;;17.27;11.27;;;10.40;99.90;;;;;;5094160;28;20175;-71
2022/03/30 12:02:41;;;;;;;27.92;12.85;;;10.40;99.90;;;;;;5094192;28;20172;-71
2022/03/30 12:05:07;;;;;;;18.42;11.00;;;10.50;99.90;;;;;;5093072;28;20179;-71
2022/03/30 12:07:35;;;;;;;18.42;11.27;;;10.50;99.90;;;;;;5094143;28;20188;-71
2022/03/30 12:10:02;;;;;;;24.15;11.52;;;10.60;99.90;;;;;;5094006;28;20168;-73
2022/03/30 12:12:39;;;;;;;16.85;9.70;;;10.80;99.90;;;;;;5093602;28;20282;-71
2022/03/30 12:15:11;;;;;;;16.30;11.15;;;11.10;99.90;;;;;;5093945;28;20191;-71
2022/03/30 12:17:37;;;;;;;19.25;10.63;;;10.90;99.90;;;;;;5093785;28;20192;-71
2022/03/30 12:20:07;;;;;;;18.85;11.57;;;11.00;99.90;;;;;;5093969;28;20190;-71
2022/03/30 12:22:33;;;;;;;15.82;11.55;;;11.00;99.90;;;;;;5093934;28;20167;-71
2022/03/30 12:24:59;;;;;;;14.70;10.52;;;11.00;99.90;;;;;;5092878;28;20175;-71
2022/03/30 12:27:26;;;;;;;15.70;10.88;;;11.10;99.90;;;;;;5093867;28;20246;-71
2022/03/30 12:29:56;;;;;;;20.08;11.27;;;11.30;99.90;;;;;;5093762;28;20176;-71
2022/03/30 12:32:26;;;;;;;20.65;11.45;;;11.50;99.90;;;;;;5093756;28;20258;-71
2022/03/30 12:35:16;;;;;;;23.10;10.63;;;11.60;99.90;;;;;;5093791;28;20174;-71
2022/03/30 12:37:46;;;;;;;16.88;10.55;;;11.70;99.90;;;;;;5092531;28;20309;-71
2022/03/30 12:40:18;;;;;;;17.95;10.85;;;11.80;99.90;;;;;;5092648;28;20168;-71
2022/03/30 12:42:44;;;;;;;18.13;10.32;;;11.90;99.90;;;;;;5093657;28;20175;-71
2022/03/30 12:45:12;;;;;;;13.88;9.98;;;11.80;99.90;;;;;;5093720;28;20166;-71
2022/03/30 12:47:44;;;;;;;15.77;9.82;;;11.90;99.90;;;;;;5093754;28;20627;-71
2022/03/30 12:50:13;;;;;;;15.63;11.23;;;12.00;99.90;;;;;;5093526;28;20176;-71
2022/03/30 12:52:45;;;;;;;16.38;10.50;;;12.00;99.90;;;;;;5092332;28;20176;-71
2022/03/30 12:55:17;;;;;;;19.08;9.82;;;12.10;99.90;;;;;;5093545;28;20242;-71
2022/03/30 12:58:13;;;;;;;11.63;9.13;;;12.20;99.90;;;;;;5093453;28;20270;-71
2022/03/30 13:00:45;;;;;;;15.77;9.85;;;12.20;99.90;;;;;;5092464;28;20474;-71
2022/03/30 13:03:18;;;;;;;16.13;9.85;;;12.10;99.90;;;;;;5093428;28;20164;-71
2022/03/30 13:05:49;;;;;;;14.98;9.20;;;12.20;99.90;;;;;;5093638;28;20172;-71
2022/03/30 13:08:17;;;;;;;16.17;10.38;;;12.20;99.90;;;;;;5093262;28;20633;-71
2022/03/30 13:10:52;;;;;;;10.57;9.10;;;12.40;99.90;;;;;;5093357;28;20668;-71
2022/03/30 13:13:21;;;;;;;18.30;10.18;;;12.60;99.90;;;;;;5093514;28;20699;-71
2022/03/30 13:15:47;;;;;;;14.43;9.75;;;12.90;99.90;;;;;;5093363;28;20171;-71
2022/03/30 13:18:21;;;;;;;11.23;9.30;;;13.00;99.90;;;;;;5093216;28;20219;-71
2022/03/30 13:21:01;;;;;;;22.63;10.02;;;13.10;99.90;;;;;;5093081;28;20168;-71
2022/03/30 13:23:52;;;;;;;10.77;8.25;;;13.00;99.90;;;;;;5093463;28;20160;-71
2022/03/30 13:26:33;;;;;;;13.15;9.18;;;12.70;99.90;;;;;;5095970;28;20222;-71
2022/03/30 13:29:00;;;;;;;15.43;9.00;;;12.60;99.90;;;;;;5097327;28;20638;-72
2022/03/30 13:31:26;;;;;;;13.50;9.25;;;12.60;99.90;;;;;;5096910;28;20266;-71
2022/03/30 13:33:54;;;;;;;14.63;9.18;;;12.60;99.90;;;;;;5097020;28;20525;-71
2022/03/30 13:36:21;;;;;;;17.10;9.15;;;12.70;99.90;;;;;;5096930;28;20168;-71
2022/03/30 13:38:48;;;;;;;17.30;8.95;;;12.80;99.90;;;;;;5096425;28;20656;-71
2022/03/30 13:41:17;;;;;;;14.68;9.45;;;12.70;99.90;;;;;;5095379;28;20172;-71
2022/03/30 13:43:43;;;;;;;15.93;9.70;;;12.60;99.90;;;;;;5096736;28;20175;-71
2022/03/30 13:46:10;;;;;;;11.93;8.57;;;12.40;99.90;;;;;;5097128;28;20168;-72
2022/03/30 13:48:36;;;;;;;12.07;8.77;;;12.40;99.90;;;;;;5095200;28;20346;-71
2022/03/30 13:51:01;;;;;;;15.23;8.60;;;12.60;99.90;;;;;;5096171;28;20235;-71
2022/03/30 13:53:29;;;;;;;9.30;8.32;;;12.80;99.90;;;;;;5096276;28;20172;-71
2022/03/30 13:55:55;;;;;;;12.10;10.02;;;12.90;99.90;;;;;;5096281;28;20160;-71
2022/03/30 13:58:21;;;;;;;13.75;8.63;;;12.80;99.90;;;;;;5096181;28;20195;-71
2022/03/30 14:00:47;;;;;;;12.77;9.10;;;12.80;99.90;;;;;;5096111;28;20193;-71
2022/03/30 14:03:12;;;;;;;16.20;10.05;;;12.80;99.90;;;;;;5096112;28;20168;-71
2022/03/30 14:05:38;;;;;;;13.30;9.65;;;12.60;99.90;;;;;;5096030;28;20617;-71
2022/03/30 14:08:04;;;;;;;16.40;9.52;;;12.50;99.90;;;;;;5096255;28;20171;-71
2022/03/30 14:10:30;;;;;;;14.80;10.75;;;12.50;99.90;;;;;;5095958;28;20633;-72
2022/03/30 14:12:56;;;;;;;13.75;10.27;;;12.70;99.90;;;;;;5095805;28;20203;-72
2022/03/30 14:15:25;;;;;;;14.63;9.98;;;12.80;99.90;;;;;;5094731;28;20267;-72
2022/03/30 14:17:51;;;;;;;13.68;9.85;;;12.80;99.90;;;;;;5095695;28;20320;-72
2022/03/30 14:20:18;;;;;;;14.73;10.50;;;12.80;99.90;;;;;;5095752;28;20168;-72
2022/03/30 14:22:50;;;;;;;14.45;10.13;;;12.80;99.90;;;;;;5095794;28;20156;-74
2022/03/30 14:25:18;;;;;;;12.93;10.25;;;13.10;99.90;;;;;;5095727;28;20528;-75
2022/03/30 14:27:44;;;;;;;15.07;11.15;;;13.50;99.90;;;;;;5095664;28;20279;-75
2022/03/30 14:30:12;;;;;;;15.98;11.80;;;13.70;99.90;;;;;;5095333;28;20174;-75
2022/03/30 14:32:38;;;;;;;15.25;11.18;;;13.70;99.90;;;;;;5095780;28;20203;-74
2022/03/30 14:35:05;;;;;;;14.68;10.95;;;13.90;99.90;;;;;;5095486;28;20172;-75
2022/03/30 14:37:31;;;;;;;18.25;12.80;;;13.90;99.90;;;;;;5095337;28;20223;-75
2022/03/30 14:39:58;;;;;;;19.70;11.48;;;13.80;99.90;;;;;;5095540;28;20164;-75
2022/03/30 14:42:24;;;;;;;16.42;11.23;;;13.70;99.90;;;;;;5095273;28;20212;-75
2022/03/30 14:44:49;;;;;;;13.70;11.35;;;13.70;99.90;;;;;;5094276;28;20175;-75
2022/03/30 14:47:17;;;;;;;13.00;11.05;;;13.70;99.90;;;;;;5095213;28;20595;-75
2022/03/30 14:49:43;;;;;;;19.30;10.57;;;13.60;99.90;;;;;;5095396;28;20171;-75
2022/03/30 14:52:09;;;;;;;18.98;11.40;;;13.60;99.90;;;;;;5095365;28;20168;-74
2022/03/30 14:54:35;;;;;;;18.85;11.15;;;13.30;99.90;;;;;;5095343;28;20167;-74
2022/03/30 14:57:01;;;;;;;13.43;10.20;;;13.10;99.90;;;;;;5093957;28;20176;-75
2022/03/30 14:59:26;;;;;;;17.17;10.55;;;12.90;99.90;;;;;;5095086;28;20278;-74
2022/03/30 15:01:52;;;;;;;16.05;11.25;;;12.80;99.90;;;;;;5093746;28;20505;-74
2022/03/30 15:04:18;;;;;;;17.27;11.27;;;12.80;99.90;;;;;;5095120;28;20164;-74
2022/03/30 15:06:44;;;;;;;15.45;10.55;;;12.80;99.90;;;;;;5095044;28;20670;-74
2022/03/30 15:09:09;;;;;;;16.08;11.00;;;12.70;99.90;;;;;;5095185;28;20171;-74
2022/03/30 15:11:37;;;;;;;15.32;10.32;;;12.50;99.90;;;;;;5094995;28;20172;-74
2022/03/30 15:14:03;;;;;;;18.90;11.63;;;12.40;99.90;;;;;;5094936;28;20229;-74
2022/03/30 15:16:29;;;;;;;13.85;10.35;;;12.50;99.90;;;;;;5095064;28;20171;-74
2022/03/30 15:18:55;;;;;;;13.95;10.60;;;12.50;99.90;;;;;;5094770;28;20201;-74
2022/03/30 15:21:20;;;;;;;13.00;10.55;;;12.70;99.90;;;;;;5094712;28;20252;-75
2022/03/30 15:23:46;;;;;;;15.93;10.82;;;12.60;99.90;;;;;;5094869;28;20164;-74
2022/03/30 15:26:12;;;;;;;14.48;10.27;;;12.70;99.90;;;;;;5094755;28;20175;-74
2022/03/30 15:28:37;;;;;;;15.15;10.70;;;12.60;99.90;;;;;;5093510;28;20171;-74
2022/03/30 15:31:03;;;;;;;12.77;10.25;;;12.80;99.90;;;;;;5094578;28;20652;-74
2022/03/30 15:33:29;;;;;;;16.70;10.63;;;12.90;99.90;;;;;;5094655;28;20179;-74
2022/03/30 15:36:00;;;;;;;15.57;10.05;;;12.90;99.90;;;;;;5094483;28;20179;-74
2022/03/30 15:38:27;;;;;;;20.30;9.77;;;12.90;99.90;;;;;;5094271;28;20238;-74
2022/03/30 15:40:53;;;;;;;15.93;9.52;;;12.70;99.90;;;;;;5093341;28;20193;-74
2022/03/30 15:43:18;;;;;;;14.35;8.90;;;12.80;99.90;;;;;;5094424;28;20159;-74
2022/03/30 15:45:44;;;;;;;11.95;9.20;;;12.70;99.90;;;;;;5094421;28;20256;-74
2022/03/30 15:48:11;;;;;;;16.60;10.20;;;12.80;99.90;;;;;;5093788;28;20215;-74
2022/03/30 15:50:38;;;;;;;14.07;8.93;;;12.80;99.90;;;;;;5094259;28;20672;-74
2022/03/30 15:53:06;;;;;;;12.55;8.75;;;12.70;99.90;;;;;;5092947;28;20255;-74
2022/03/30 15:55:31;;;;;;;13.45;9.38;;;12.70;99.90;;;;;;5094087;28;20172;-74
2022/03/30 15:57:59;;;;;;;14.25;9.00;;;12.70;99.90;;;;;;5094042;28;20202;-74
2022/03/30 16:00:35;;;;;;;13.95;8.52;;;12.70;99.90;;;;;;5093916;28;20167;-74
2022/03/30 16:03:01;;;;;;;14.70;8.85;;;12.60;99.90;;;;;;5092837;28;20250;-74
2022/03/30 16:05:26;;;;;;;17.25;9.65;;;12.60;99.90;;;;;;5092754;28;20267;-74
2022/03/30 16:10:36;;;;;;;12.15;10.05;;;12.40;99.90;;;;;;5094715;28;20171;-74
2022/03/30 16:13:04;;;;;;;10.88;8.50;;;12.30;99.90;;;;;;5093939;28;20168;-74
2022/03/30 16:15:30;;;;;;;16.88;9.55;;;12.30;99.90;;;;;;5092904;28;20182;-73
2022/03/30 16:17:56;;;;;;;13.13;8.95;;;12.30;99.90;;;;;;5093706;28;20202;-73
2022/03/30 16:20:22;;;;;;;22.75;10.10;;;12.20;99.90;;;;;;5094042;28;20171;-73
2022/03/30 16:22:50;;;;;;;14.35;8.93;;;12.20;99.90;;;;;;5093753;28;20160;-67
2022/03/30 16:25:20;;;;;;;9.82;7.82;;;11.90;99.90;;;;;;5093765;28;20175;-67
2022/03/30 16:27:46;;;;;;;14.93;9.52;;;11.90;99.90;;;;;;5093834;28;20164;-67
2022/03/30 16:30:12;;;;;;;11.43;7.65;;;11.70;99.90;;;;;;5093622;28;20199;-67
2022/03/30 16:32:39;;;;;;;9.77;8.77;;;11.60;99.90;;;;;;5093845;28;20167;-74
2022/03/30 16:35:06;;;;;;;19.83;9.00;;;11.50;99.90;;;;;;5093489;28;20167;-75
2022/03/30 16:37:33;;;;;;;11.95;8.35;;;11.40;99.90;;;;;;5091986;28;20219;-75
2022/03/30 16:39:59;;;;;;;11.38;8.75;;;11.30;99.90;;;;;;5093513;28;20259;-75
2022/03/30 16:42:26;;;;;;;9.32;8.27;;;11.20;99.90;;;;;;5093671;28;20282;-75
2022/03/30 16:44:52;;;;;;;11.43;9.98;;;11.10;99.90;;;;;;5093482;28;20164;-75
2022/03/30 16:47:18;;;;;;;14.10;9.05;;;11.00;99.90;;;;;;5093335;28;20630;-75
2022/03/30 16:49:44;;;;;;;12.60;8.57;;;11.00;99.90;;;;;;5093627;28;20551;-75
2022/03/30 16:52:10;;;;;;;19.60;8.85;;;10.90;99.90;;;;;;5093828;28;20254;-75
2022/03/30 16:54:36;;;;;;;13.68;9.48;;;10.80;99.90;;;;;;5093640;28;20328;-75
2022/03/30 16:57:02;;;;;;;10.45;8.32;;;10.70;99.90;;;;;;5093611;28;20167;-74
2022/03/30 16:59:28;;;;;;;12.05;8.60;;;10.70;99.90;;;;;;5094103;28;20210;-74
2022/03/30 17:01:54;;;;;;;14.02;8.70;;;10.60;99.90;;;;;;5097308;28;20491;-74
2022/03/30 17:04:20;;;;;;;13.70;8.35;;;10.60;99.90;;;;;;5097285;28;20160;-75
2022/03/30 17:06:46;;;;;;;12.57;8.60;;;10.60;99.90;;;;;;5097239;28;20627;-74
2022/03/30 17:11:56;;;;;;;15.38;9.07;;;10.40;99.90;;;;;;5097191;28;20216;-75
2022/03/30 17:14:22;;;;;;;15.20;8.55;;;10.30;99.90;;;;;;5097054;28;20167;-75
2022/03/30 17:16:48;;;;;;;18.23;10.07;;;10.20;99.90;;;;;;5097142;28;20692;-75
2022/03/30 17:19:17;;;;;;;13.77;7.95;;;10.10;99.90;;;;;;5096968;28;20204;-75
2022/03/30 17:21:44;;;;;;;10.77;8.52;;;10.10;99.90;;;;;;5096942;28;20168;-74
2022/03/30 17:24:10;;;;;;;14.15;8.18;;;10.10;99.90;;;;;;5096895;28;20160;-74
2022/03/30 17:26:36;;;;;;;13.32;8.10;;;10.00;99.90;;;;;;5096966;28;20168;-74
2022/03/30 17:29:03;;;;;;;8.95;7.88;;;9.90;99.90;;;;;;5096760;28;20172;-74
2022/03/30 17:31:29;;;;;;;13.77;9.48;;;9.80;99.90;;;;;;5095491;28;20176;-75
